createdAt,value
2018-12-22T00:01:53.343Z,10.15
2018-12-22T00:04:20.875Z,10.17
2018-12-22T00:06:48.334Z,10.21
2018-12-22T00:09:15.777Z,10.21
2018-12-22T00:11:43.208Z,10.21
2018-12-22T00:14:10.613Z,10.20
2018-12-22T00:16:38.025Z,10.22
2018-12-22T00:19:05.501Z,10.24
2018-12-22T00:21:32.944Z,10.23
2018-12-22T00:24:00.376Z,10.22
2018-12-22T00:26:27.869Z,10.18
2018-12-22T00:31:35.395Z,10.14
2018-12-22T00:34:02.850Z,10.17
2018-12-22T00:36:30.312Z,10.26
2018-12-22T00:38:57.729Z,10.33
2018-12-22T00:41:25.208Z,10.34
2018-12-22T00:43:52.623Z,10.33
2018-12-22T00:46:20.153Z,10.34
2018-12-22T00:48:47.586Z,10.37
2018-12-22T00:51:15.051Z,10.43
2018-12-22T00:53:42.509Z,10.42
2018-12-22T00:56:09.961Z,10.42
2018-12-22T00:58:37.396Z,10.43
2018-12-22T01:01:04.868Z,10.45
2018-12-22T01:03:32.437Z,10.43
2018-12-22T01:05:59.866Z,10.47
2018-12-22T01:08:27.284Z,10.45
2018-12-22T01:10:54.693Z,10.43
2018-12-22T01:13:22.132Z,10.40
2018-12-22T01:15:49.546Z,10.44
2018-12-22T01:18:16.965Z,10.48
2018-12-22T01:20:44.421Z,10.49
2018-12-22T01:23:11.877Z,10.48
2018-12-22T01:25:39.400Z,10.50
2018-12-22T01:28:06.888Z,10.49
2018-12-22T01:30:34.353Z,10.49
2018-12-22T01:33:01.825Z,10.48
2018-12-22T01:35:29.291Z,10.49
2018-12-22T01:37:56.734Z,10.50
2018-12-22T01:40:24.196Z,10.51
2018-12-22T01:42:51.630Z,10.52
2018-12-22T01:45:19.115Z,10.50
2018-12-22T01:47:46.580Z,10.48
2018-12-22T01:50:13.999Z,10.48
2018-12-22T01:52:41.443Z,10.51
2018-12-22T01:55:08.956Z,10.51
2018-12-22T01:57:36.385Z,10.53
2018-12-22T02:00:04.975Z,10.51
2018-12-22T02:02:32.451Z,10.50
2018-12-22T02:04:59.869Z,10.52
2018-12-22T02:07:27.341Z,10.52
2018-12-22T02:09:54.765Z,10.48
2018-12-22T02:12:22.231Z,10.47
2018-12-22T02:14:49.742Z,10.48
2018-12-22T02:17:17.195Z,10.50
2018-12-22T02:19:44.622Z,10.56
2018-12-22T02:22:12.099Z,10.55
2018-12-22T02:24:39.561Z,10.52
2018-12-22T02:27:07.004Z,10.51
2018-12-22T02:29:34.556Z,10.49
2018-12-22T02:32:01.986Z,10.49
2018-12-22T02:34:29.416Z,10.48
2018-12-22T02:36:56.931Z,10.48
2018-12-22T02:39:24.403Z,10.44
2018-12-22T02:41:51.839Z,10.40
2018-12-22T02:44:19.267Z,10.37
2018-12-22T02:46:46.757Z,10.35
2018-12-22T02:49:14.231Z,10.34
2018-12-22T02:51:41.641Z,10.26
2018-12-22T02:54:09.063Z,10.22
2018-12-22T02:56:36.485Z,10.20
2018-12-22T02:59:06.346Z,10.17
2018-12-22T03:01:33.560Z,10.18
2018-12-22T03:04:00.992Z,10.16
2018-12-22T03:06:28.451Z,10.15
2018-12-22T03:08:56.037Z,10.18
2018-12-22T03:11:23.486Z,10.14
2018-12-22T03:13:50.930Z,10.09
2018-12-22T03:16:18.355Z,10.06
2018-12-22T03:18:45.795Z,10.03
2018-12-22T03:21:13.261Z,10.01
2018-12-22T03:23:40.769Z,9.97
2018-12-22T03:26:08.215Z,10.01
2018-12-22T03:28:35.677Z,10.03
2018-12-22T03:31:03.103Z,10.04
2018-12-22T03:33:30.505Z,10.04
2018-12-22T03:35:58.056Z,10.02
2018-12-22T03:38:25.476Z,9.99
2018-12-22T03:40:52.892Z,9.97
2018-12-22T03:43:20.293Z,9.93
2018-12-22T03:45:47.697Z,9.91
2018-12-22T03:48:15.140Z,9.86
2018-12-22T03:50:42.677Z,9.79
2018-12-22T03:53:10.133Z,9.75
2018-12-22T03:55:37.611Z,9.75
2018-12-22T03:58:05.071Z,9.71
2018-12-22T04:00:32.533Z,9.66
2018-12-22T04:02:59.961Z,9.68
2018-12-22T04:05:27.390Z,9.72
2018-12-22T04:07:54.887Z,9.76
2018-12-22T04:10:22.310Z,9.80
2018-12-22T04:12:49.789Z,9.84
2018-12-22T04:15:17.259Z,9.84
2018-12-22T04:17:44.718Z,9.86
2018-12-22T04:20:12.166Z,9.85
2018-12-22T04:22:39.568Z,9.83
2018-12-22T04:25:07.102Z,9.84
2018-12-22T04:27:34.524Z,9.86
2018-12-22T04:30:02.073Z,9.87
2018-12-22T04:32:29.562Z,9.86
2018-12-22T04:34:57.032Z,9.86
2018-12-22T04:37:24.513Z,9.87
2018-12-22T04:39:52.035Z,9.89
2018-12-22T04:42:19.479Z,9.92
2018-12-22T04:44:47.074Z,9.92
2018-12-22T04:47:14.508Z,9.90
2018-12-22T04:49:41.943Z,9.89
2018-12-22T04:52:09.509Z,9.83
2018-12-22T04:54:36.980Z,9.85
2018-12-22T04:57:04.440Z,9.85
2018-12-22T04:59:31.898Z,9.87
2018-12-22T05:01:59.341Z,9.87
2018-12-22T05:04:26.798Z,9.85
2018-12-22T05:06:54.267Z,9.83
2018-12-22T05:09:21.736Z,9.86
2018-12-22T05:11:49.140Z,9.85
2018-12-22T05:14:16.626Z,9.85
2018-12-22T05:16:44.078Z,9.84
2018-12-22T05:19:11.550Z,9.82
2018-12-22T05:21:38.994Z,9.81
2018-12-22T05:24:06.434Z,9.79
2018-12-22T05:26:33.841Z,9.81
2018-12-22T05:29:01.283Z,9.83
2018-12-22T05:31:28.735Z,9.87
2018-12-22T05:33:56.155Z,9.87
2018-12-22T05:36:23.593Z,9.86
2018-12-22T05:38:51.098Z,9.86
2018-12-22T05:41:19.802Z,9.86
2018-12-22T05:43:47.373Z,9.87
2018-12-22T05:46:14.794Z,9.88
2018-12-22T05:48:42.264Z,9.95
2018-12-22T05:51:09.705Z,9.94
2018-12-22T05:53:37.165Z,9.93
2018-12-22T05:56:04.573Z,9.91
2018-12-22T05:58:32.074Z,9.93
2018-12-22T06:00:59.566Z,9.91
2018-12-22T06:03:26.993Z,9.94
2018-12-22T06:05:54.441Z,9.95
2018-12-22T06:08:21.905Z,9.97
2018-12-22T06:10:49.330Z,9.99
2018-12-22T06:13:16.756Z,10.02
2018-12-22T06:15:44.177Z,10.04
2018-12-22T06:18:11.633Z,10.06
2018-12-22T06:20:39.075Z,10.11
2018-12-22T06:23:06.620Z,10.08
2018-12-22T06:25:34.114Z,10.12
2018-12-22T06:28:01.775Z,10.15
2018-12-22T06:30:29.220Z,10.14
2018-12-22T06:32:56.899Z,10.12
2018-12-22T06:35:24.362Z,10.10
2018-12-22T06:37:51.847Z,10.12
2018-12-22T06:40:19.382Z,10.17
2018-12-22T06:42:46.831Z,10.19
2018-12-22T06:45:14.255Z,10.21
2018-12-22T06:47:41.679Z,10.24
2018-12-22T06:50:09.190Z,10.23
2018-12-22T06:52:36.645Z,10.25
2018-12-22T06:55:04.136Z,10.28
2018-12-22T06:57:31.540Z,10.32
2018-12-22T06:59:59.028Z,10.20
2018-12-22T07:02:26.487Z,10.22
2018-12-22T07:04:54.025Z,10.24
2018-12-22T07:07:21.603Z,10.22
2018-12-22T07:09:49.067Z,10.24
2018-12-22T07:12:16.531Z,10.16
2018-12-22T07:14:43.969Z,10.13
2018-12-22T07:17:11.422Z,10.09
2018-12-22T07:19:38.899Z,10.06
2018-12-22T07:22:06.351Z,10.06
2018-12-22T07:24:33.808Z,10.04
2018-12-22T07:27:01.253Z,10.04
2018-12-22T07:29:28.818Z,10.02
2018-12-22T07:31:56.280Z,10.02
2018-12-22T07:34:23.707Z,9.98
2018-12-22T07:36:51.204Z,10.05
2018-12-22T07:39:18.751Z,10.15
2018-12-22T07:41:46.175Z,10.14
2018-12-22T07:44:13.664Z,10.12
2018-12-22T07:46:41.112Z,10.08
2018-12-22T07:49:08.603Z,10.06
2018-12-22T07:51:36.057Z,10.08
2018-12-22T07:54:03.597Z,10.08
2018-12-22T07:56:31.032Z,10.09
2018-12-22T07:58:58.498Z,10.08
2018-12-22T08:01:25.983Z,10.08
2018-12-22T08:03:53.527Z,10.08
2018-12-22T08:06:20.983Z,10.14
2018-12-22T08:08:48.430Z,10.14
2018-12-22T08:11:15.912Z,10.08
2018-12-22T08:13:43.356Z,10.12
2018-12-22T08:16:10.785Z,10.12
2018-12-22T08:18:38.276Z,10.16
2018-12-22T08:21:05.737Z,10.12
2018-12-22T08:23:33.174Z,10.15
2018-12-22T08:26:00.644Z,10.08
2018-12-22T08:28:28.114Z,10.09
2018-12-22T08:30:55.537Z,10.04
2018-12-22T08:33:23.009Z,10.00
2018-12-22T08:35:50.468Z,9.98
2018-12-22T08:38:17.931Z,9.92
2018-12-22T08:40:45.367Z,9.87
2018-12-22T08:43:12.828Z,9.82
2018-12-22T08:45:40.254Z,9.74
2018-12-22T08:48:07.749Z,9.73
2018-12-22T08:50:35.208Z,9.68
2018-12-22T08:53:02.674Z,9.67
2018-12-22T08:55:30.130Z,9.69
2018-12-22T08:57:57.569Z,9.72
2018-12-22T09:00:25.045Z,9.69
2018-12-22T09:02:52.519Z,9.73
2018-12-22T09:05:19.948Z,9.74
2018-12-22T09:07:47.394Z,9.74
2018-12-22T09:10:14.824Z,9.70
2018-12-22T09:12:42.259Z,9.67
2018-12-22T09:15:09.772Z,9.62
2018-12-22T09:17:37.221Z,9.60
2018-12-22T09:20:07.337Z,9.61
2018-12-22T09:22:34.766Z,9.60
2018-12-22T09:25:02.286Z,9.61
2018-12-22T09:27:29.697Z,9.61
2018-12-22T09:29:57.183Z,9.63
2018-12-22T09:32:24.629Z,9.66
2018-12-22T09:34:52.067Z,9.64
2018-12-22T09:37:19.569Z,9.68
2018-12-22T09:39:47.011Z,9.73
2018-12-22T09:42:14.447Z,9.73
2018-12-22T09:44:41.928Z,9.78
2018-12-22T09:47:09.348Z,9.76
2018-12-22T09:49:36.825Z,9.75
2018-12-22T09:52:04.294Z,9.73
2018-12-22T09:54:31.738Z,9.72
2018-12-22T09:56:59.212Z,9.75
2018-12-22T09:59:26.677Z,9.75
2018-12-22T10:01:54.087Z,9.80
2018-12-22T10:04:21.569Z,9.85
2018-12-22T10:06:48.995Z,9.89
2018-12-22T10:09:16.504Z,9.84
2018-12-22T10:11:43.950Z,9.86
2018-12-22T10:14:11.397Z,9.88
2018-12-22T10:16:38.827Z,9.91
2018-12-22T10:19:06.322Z,9.91
2018-12-22T10:21:33.783Z,9.91
2018-12-22T10:24:01.243Z,9.88
2018-12-22T10:26:28.995Z,9.91
2018-12-22T10:28:56.445Z,9.93
2018-12-22T10:31:23.895Z,9.88
2018-12-22T10:33:51.365Z,9.90
2018-12-22T10:36:18.793Z,9.92
2018-12-22T10:38:46.274Z,9.91
2018-12-22T10:41:13.744Z,9.91
2018-12-22T10:43:41.180Z,9.88
2018-12-22T10:46:08.641Z,9.89
2018-12-22T10:48:36.075Z,9.87
2018-12-22T10:51:03.569Z,9.98
2018-12-22T10:53:31.029Z,10.01
2018-12-22T10:55:58.486Z,10.06
2018-12-22T10:58:25.946Z,10.10
2018-12-22T11:00:53.387Z,10.08
2018-12-22T11:03:20.865Z,10.11
2018-12-22T11:05:48.273Z,10.11
2018-12-22T11:08:15.783Z,10.19
2018-12-22T11:10:43.232Z,10.21
2018-12-22T11:13:10.663Z,10.19
2018-12-22T11:15:38.104Z,10.14
2018-12-22T11:18:05.521Z,10.17
2018-12-22T11:20:32.966Z,10.17
2018-12-22T11:23:00.410Z,10.17
2018-12-22T11:25:27.958Z,10.23
2018-12-22T11:27:55.435Z,10.30
2018-12-22T11:30:24.435Z,10.32
2018-12-22T11:32:51.884Z,10.37
2018-12-22T11:35:19.426Z,10.47
2018-12-22T11:37:47.007Z,10.49
2018-12-22T11:40:14.431Z,10.39
2018-12-22T11:42:47.581Z,10.34
2018-12-22T11:45:11.401Z,10.27
2018-12-22T11:47:41.737Z,10.31
2018-12-22T11:50:17.593Z,10.46
2018-12-22T11:52:45.042Z,10.61
2018-12-22T11:55:12.463Z,10.64
2018-12-22T11:57:40.054Z,10.66
2018-12-22T12:00:09.257Z,10.68
2018-12-22T12:02:36.732Z,10.61
2018-12-22T12:05:07.371Z,10.62
2018-12-22T12:07:35.774Z,10.60
2018-12-22T12:10:03.712Z,10.53
2018-12-22T12:12:31.140Z,10.53
2018-12-22T12:14:58.592Z,10.49
2018-12-22T12:17:38.537Z,10.43
2018-12-22T12:20:06.693Z,10.44
2018-12-22T12:22:34.285Z,10.40
2018-12-22T12:25:01.754Z,10.42
2018-12-22T12:27:29.232Z,10.39
2018-12-22T12:29:56.779Z,10.27
2018-12-22T12:32:24.196Z,10.23
2018-12-22T12:34:51.641Z,10.23
2018-12-22T12:37:19.080Z,10.17
2018-12-22T12:39:46.486Z,10.14
2018-12-22T12:42:13.913Z,10.21
2018-12-22T12:44:42.352Z,10.25
2018-12-22T12:47:10.018Z,10.35
2018-12-22T12:49:37.433Z,10.41
2018-12-22T12:52:05.024Z,10.40
2018-12-22T12:54:32.483Z,10.36
2018-12-22T12:56:59.913Z,10.32
2018-12-22T12:59:27.379Z,10.35
2018-12-22T13:02:00.967Z,10.33
2018-12-22T13:04:24.308Z,10.39
2018-12-22T13:06:51.789Z,10.35
2018-12-22T13:09:19.232Z,10.37
2018-12-22T13:11:46.926Z,10.46
2018-12-22T13:14:14.496Z,10.56
2018-12-22T13:16:41.936Z,10.67
2018-12-22T13:19:09.375Z,10.64
2018-12-22T13:21:36.986Z,10.62
2018-12-22T13:24:04.510Z,10.62
2018-12-22T13:26:36.766Z,10.59
2018-12-22T13:29:01.487Z,10.62
2018-12-22T13:31:29.981Z,10.71
2018-12-22T13:33:57.551Z,10.70
2018-12-22T13:36:24.979Z,10.66
2018-12-22T13:38:52.626Z,10.71
2018-12-22T13:41:20.296Z,10.73
2018-12-22T13:43:47.777Z,10.72
2018-12-22T13:46:15.193Z,10.67
2018-12-22T13:48:42.864Z,10.68
2018-12-22T13:51:10.760Z,10.68
2018-12-22T13:53:38.428Z,10.63
2018-12-22T13:56:05.981Z,10.61
2018-12-22T13:58:33.519Z,10.51
2018-12-22T14:01:01.088Z,10.12
2018-12-22T14:03:28.628Z,9.75
2018-12-22T14:05:56.097Z,9.50
2018-12-22T14:08:23.701Z,9.30
2018-12-22T14:10:51.098Z,9.22
2018-12-22T14:13:18.531Z,9.16
2018-12-22T14:15:47.368Z,9.13
2018-12-22T14:18:19.419Z,9.09
2018-12-22T14:20:46.880Z,9.12
2018-12-22T14:23:14.337Z,9.14
2018-12-22T14:25:41.767Z,9.14
2018-12-22T14:28:09.193Z,9.14
2018-12-22T14:30:36.737Z,9.11
2018-12-22T14:33:04.374Z,9.09
2018-12-22T14:35:34.707Z,9.16
2018-12-22T14:38:02.123Z,9.23
2018-12-22T14:40:29.601Z,9.28
2018-12-22T14:42:57.026Z,9.29
2018-12-22T14:45:24.543Z,9.34
2018-12-22T14:47:52.075Z,9.35
2018-12-22T14:50:19.537Z,9.34
2018-12-22T14:52:47.054Z,9.36
2018-12-22T14:55:14.551Z,9.35
2018-12-22T14:57:53.396Z,9.36
2018-12-22T15:00:20.811Z,9.37
2018-12-22T15:02:48.292Z,9.36
2018-12-22T15:05:15.770Z,9.32
2018-12-22T15:07:43.197Z,9.31
2018-12-22T15:10:10.975Z,9.28
2018-12-22T15:12:38.442Z,9.31
2018-12-22T15:15:11.104Z,9.34
2018-12-22T15:17:41.468Z,9.31
2018-12-22T15:20:14.784Z,9.32
2018-12-22T15:22:42.370Z,9.38
2018-12-22T15:25:09.939Z,9.39
2018-12-22T15:27:37.416Z,9.35
2018-12-22T15:30:08.858Z,9.34
2018-12-22T15:32:43.889Z,9.31
2018-12-22T15:35:07.741Z,9.28
2018-12-22T15:37:35.325Z,9.28
2018-12-22T15:40:04.410Z,9.29
2018-12-22T15:42:31.867Z,9.31
2018-12-22T15:44:59.431Z,9.37
2018-12-22T15:47:26.896Z,9.41
2018-12-22T15:49:54.552Z,9.40
2018-12-22T15:52:22.003Z,9.37
2018-12-22T15:54:49.456Z,9.36
2018-12-22T15:57:17.028Z,9.35
2018-12-22T15:59:44.480Z,9.33
2018-12-22T16:02:11.906Z,9.29
2018-12-22T16:04:39.414Z,9.27
2018-12-22T16:07:06.848Z,9.26
2018-12-22T16:09:34.253Z,9.29
2018-12-22T16:12:01.760Z,9.36
2018-12-22T16:14:29.178Z,9.44
2018-12-22T16:16:56.666Z,9.40
2018-12-22T16:19:24.121Z,9.33
2018-12-22T16:21:51.540Z,9.32
2018-12-22T16:24:19.042Z,9.32
2018-12-22T16:26:46.722Z,9.36
2018-12-22T16:29:14.331Z,9.35
2018-12-22T16:31:41.820Z,9.33
2018-12-22T16:34:09.277Z,9.33
2018-12-22T16:36:36.709Z,9.30
2018-12-22T16:39:06.242Z,9.32
2018-12-22T16:41:33.698Z,9.28
2018-12-22T16:44:01.258Z,9.26
2018-12-22T16:46:28.733Z,9.26
2018-12-22T16:48:56.191Z,9.16
2018-12-22T16:51:23.606Z,9.19
2018-12-22T16:53:51.099Z,9.14
2018-12-22T16:56:18.576Z,9.15
2018-12-22T16:58:46.402Z,9.18
2018-12-22T17:01:18.469Z,9.20
2018-12-22T17:03:46.145Z,9.23
2018-12-22T17:06:14.319Z,9.27
2018-12-22T17:08:41.827Z,9.27
2018-12-22T17:11:09.326Z,9.26
2018-12-22T17:13:36.802Z,9.25
2018-12-22T17:16:04.445Z,9.26
2018-12-22T17:18:31.880Z,9.27
2018-12-22T17:21:03.227Z,9.22
2018-12-22T17:23:38.093Z,9.29
2018-12-22T17:26:06.359Z,9.32
2018-12-22T17:28:33.834Z,9.36
2018-12-22T17:31:01.249Z,9.36
2018-12-22T17:33:28.672Z,9.31
2018-12-22T17:35:56.304Z,9.28
2018-12-22T17:38:24.164Z,9.30
2018-12-22T17:40:51.721Z,9.30
2018-12-22T17:43:19.160Z,9.28
2018-12-22T17:45:46.626Z,9.28
2018-12-22T17:48:14.180Z,9.23
2018-12-22T17:50:41.640Z,9.25
2018-12-22T17:53:09.061Z,9.25
2018-12-22T17:55:36.542Z,9.31
2018-12-22T17:58:04.027Z,9.36
2018-12-22T18:00:31.496Z,9.38
2018-12-22T18:02:58.931Z,9.37
2018-12-22T18:05:26.433Z,9.37
2018-12-22T18:07:53.975Z,9.40
2018-12-22T18:10:21.377Z,9.42
2018-12-22T18:12:48.867Z,9.42
2018-12-22T18:15:22.896Z,9.43
2018-12-22T18:17:50.426Z,9.45
2018-12-22T18:20:17.907Z,9.45
2018-12-22T18:22:45.455Z,9.44
2018-12-22T18:25:17.417Z,9.46
2018-12-22T18:27:45.544Z,9.46
2018-12-22T18:30:13.353Z,9.49
2018-12-22T18:32:42.039Z,9.47
2018-12-22T18:35:11.443Z,9.46
2018-12-22T18:37:39.377Z,9.42
2018-12-22T18:40:23.055Z,9.36
2018-12-22T18:42:50.519Z,9.32
2018-12-22T18:45:17.938Z,9.30
2018-12-22T18:47:45.424Z,9.30
2018-12-22T18:50:22.181Z,9.28
2018-12-22T18:52:49.619Z,9.24
2018-12-22T18:55:17.042Z,9.23
2018-12-22T18:57:47.084Z,9.24
2018-12-22T19:00:22.676Z,9.12
2018-12-22T19:02:50.732Z,9.05
2018-12-22T19:05:18.937Z,8.98
2018-12-22T19:07:46.460Z,8.94
2018-12-22T19:10:22.848Z,8.94
2018-12-22T19:12:50.392Z,8.97
2018-12-22T19:15:17.901Z,9.07
2018-12-22T19:17:45.422Z,9.12
2018-12-22T19:20:20.537Z,9.16
2018-12-22T19:22:48.002Z,9.14
2018-12-22T19:25:15.443Z,9.17
2018-12-22T19:27:42.863Z,9.21
2018-12-22T19:30:10.278Z,9.25
2018-12-22T19:32:37.747Z,9.30
2018-12-22T19:35:06.133Z,9.26
2018-12-22T19:37:33.559Z,9.18
2018-12-22T19:40:01.039Z,9.12
2018-12-22T19:42:28.511Z,9.10
2018-12-22T19:44:55.930Z,9.06
2018-12-22T19:47:23.407Z,9.07
2018-12-22T19:49:50.865Z,9.04
2018-12-22T19:52:18.284Z,9.04
2018-12-22T19:54:45.762Z,8.96
2018-12-22T19:57:13.222Z,8.92
2018-12-22T19:59:40.684Z,8.90
2018-12-22T20:02:08.135Z,8.87
2018-12-22T20:04:35.576Z,8.85
2018-12-22T20:07:03.111Z,8.86
2018-12-22T20:09:30.636Z,8.87
2018-12-22T20:11:58.059Z,8.85
2018-12-22T20:14:25.533Z,8.92
2018-12-22T20:16:52.977Z,9.01
2018-12-22T20:19:20.452Z,9.05
2018-12-22T20:21:47.911Z,9.09
2018-12-22T20:24:15.353Z,9.13
2018-12-22T20:26:42.790Z,9.13
2018-12-22T20:29:10.265Z,9.11
2018-12-22T20:31:37.744Z,9.12
2018-12-22T20:34:11.004Z,9.17
2018-12-22T20:36:34.629Z,9.16
2018-12-22T20:39:02.143Z,9.17
2018-12-22T20:41:29.598Z,9.15
2018-12-22T20:43:57.017Z,9.13
2018-12-22T20:46:24.446Z,9.13
2018-12-22T20:48:51.974Z,9.04
2018-12-22T20:51:19.397Z,8.96
2018-12-22T20:53:46.809Z,8.92
2018-12-22T20:56:14.261Z,8.91
2018-12-22T20:58:41.720Z,8.95
2018-12-22T21:01:09.155Z,8.97
2018-12-22T21:03:39.730Z,8.98
2018-12-22T21:06:13.125Z,9.01
2018-12-22T21:08:40.547Z,8.96
2018-12-22T21:11:07.984Z,8.95
2018-12-22T21:13:35.408Z,8.94
2018-12-22T21:16:02.822Z,8.94
2018-12-22T21:18:30.279Z,8.97
2018-12-22T21:20:57.720Z,9.02
2018-12-22T21:23:25.195Z,9.04
2018-12-22T21:25:52.619Z,9.04
2018-12-22T21:28:20.108Z,9.04
2018-12-22T21:30:47.543Z,8.95
2018-12-22T21:33:15.013Z,8.90
2018-12-22T21:35:52.799Z,8.90
2018-12-22T21:38:11.890Z,8.91
2018-12-22T21:40:39.339Z,8.90
2018-12-22T21:43:06.795Z,8.88
2018-12-22T21:45:34.236Z,8.92
2018-12-22T21:48:01.651Z,8.94
2018-12-22T21:50:29.159Z,8.95
2018-12-22T21:52:56.619Z,8.96
2018-12-22T21:55:24.072Z,8.93
2018-12-22T21:57:51.508Z,8.93
2018-12-22T22:00:19.150Z,8.89
2018-12-22T22:02:46.647Z,8.89
2018-12-22T22:05:14.068Z,8.88
2018-12-22T22:07:41.566Z,8.89
2018-12-22T22:10:09.105Z,8.94
2018-12-22T22:12:36.580Z,8.97
2018-12-22T22:15:05.049Z,8.91
2018-12-22T22:17:32.519Z,8.87
2018-12-22T22:19:59.954Z,8.87
2018-12-22T22:22:27.377Z,8.88
2018-12-22T22:24:54.950Z,8.89
2018-12-22T22:27:22.359Z,8.95
2018-12-22T22:29:49.917Z,9.00
2018-12-22T22:32:17.349Z,9.01
2018-12-22T22:34:45.728Z,8.89
2018-12-22T22:37:13.548Z,8.88
2018-12-22T22:39:40.981Z,8.88
2018-12-22T22:42:08.389Z,8.88
2018-12-22T22:44:35.862Z,8.85
2018-12-22T22:47:03.293Z,8.84
2018-12-22T22:49:30.786Z,8.81
2018-12-22T22:51:58.242Z,8.80
2018-12-22T22:54:25.694Z,8.78
2018-12-22T22:56:53.150Z,8.78
2018-12-22T22:59:20.557Z,8.77
2018-12-22T23:01:48.057Z,8.74
2018-12-22T23:04:15.523Z,8.73
2018-12-22T23:06:42.989Z,8.73
2018-12-22T23:09:10.448Z,8.74
2018-12-22T23:11:37.849Z,8.73
2018-12-22T23:14:05.288Z,8.73
2018-12-22T23:16:32.777Z,8.70
2018-12-22T23:19:00.199Z,8.75
2018-12-22T23:21:27.631Z,8.75
2018-12-22T23:23:55.124Z,8.78
2018-12-22T23:26:22.647Z,8.84
2018-12-22T23:28:50.086Z,8.87
2018-12-22T23:31:17.531Z,8.88
2018-12-22T23:33:44.938Z,8.88
2018-12-22T23:36:12.480Z,8.87
2018-12-22T23:38:39.927Z,8.84
2018-12-22T23:41:07.492Z,8.82
2018-12-22T23:43:34.951Z,8.79
2018-12-22T23:46:02.427Z,8.81
2018-12-22T23:48:29.872Z,8.83
2018-12-22T23:50:58.152Z,8.85
2018-12-22T23:53:25.789Z,8.85
2018-12-22T23:55:53.228Z,8.83
2018-12-22T23:58:20.698Z,8.84
